createdAt,value
2018-08-22T00:01:32.914Z,17.67
2018-08-22T00:04:01.101Z,17.53
2018-08-22T00:06:29.289Z,18.43
2018-08-22T00:08:57.554Z,18.00
2018-08-22T00:11:25.725Z,19.90
2018-08-22T00:13:53.915Z,18.40
2018-08-22T00:16:22.165Z,15.63
2018-08-22T00:18:50.434Z,18.13
2018-08-22T00:21:18.857Z,15.23
2018-08-22T00:23:47.327Z,16.10
2018-08-22T00:26:15.535Z,16.40
2018-08-22T00:28:43.773Z,17.63
2018-08-22T00:31:11.981Z,17.00
2018-08-22T00:33:40.210Z,17.40
2018-08-22T00:36:08.396Z,16.73
2018-08-22T00:38:36.605Z,17.83
2018-08-22T00:41:04.809Z,17.90
2018-08-22T00:43:33.046Z,16.40
2018-08-22T00:46:01.505Z,16.37
2018-08-22T00:48:29.738Z,17.23
2018-08-22T00:50:57.921Z,15.70
2018-08-22T00:53:26.114Z,16.83
2018-08-22T00:55:54.321Z,16.53
2018-08-22T00:58:22.517Z,17.77
2018-08-22T01:00:50.729Z,18.83
2018-08-22T01:03:18.946Z,18.73
2018-08-22T01:05:47.169Z,17.13
2018-08-22T01:08:15.388Z,15.23
2018-08-22T01:10:43.601Z,16.03
2018-08-22T01:13:11.793Z,17.20
2018-08-22T01:15:40.001Z,17.87
2018-08-22T01:18:08.300Z,16.87
2018-08-22T01:20:36.693Z,16.43
2018-08-22T01:23:04.946Z,17.43
2018-08-22T01:25:33.149Z,18.57
2018-08-22T01:28:01.733Z,18.77
2018-08-22T01:30:29.935Z,17.07
2018-08-22T01:32:58.134Z,16.13
2018-08-22T01:35:26.505Z,19.03
2018-08-22T01:37:54.728Z,16.80
2018-08-22T01:40:22.955Z,18.07
2018-08-22T01:42:51.146Z,16.90
2018-08-22T01:45:19.508Z,16.40
2018-08-22T01:47:47.690Z,16.50
2018-08-22T01:50:16.044Z,17.03
2018-08-22T01:52:44.244Z,16.83
2018-08-22T01:55:12.433Z,16.60
2018-08-22T01:57:40.642Z,17.37
2018-08-22T02:00:09.130Z,17.23
2018-08-22T02:02:37.376Z,17.13
2018-08-22T02:05:05.625Z,16.00
2018-08-22T02:07:34.470Z,16.47
2018-08-22T02:10:02.684Z,16.13
2018-08-22T02:12:31.067Z,17.60
2018-08-22T02:14:59.260Z,17.33
2018-08-22T02:17:27.458Z,15.23
2018-08-22T02:19:55.669Z,16.10
2018-08-22T02:22:23.878Z,20.07
2018-08-22T02:24:52.085Z,17.20
2018-08-22T02:27:20.273Z,17.10
2018-08-22T02:29:48.473Z,17.23
2018-08-22T02:32:16.658Z,18.10
2018-08-22T02:34:44.946Z,17.83
2018-08-22T02:37:13.147Z,18.17
2018-08-22T02:39:41.362Z,16.77
2018-08-22T02:42:09.562Z,16.90
2018-08-22T02:44:37.757Z,16.47
2018-08-22T02:47:05.967Z,16.60
2018-08-22T02:49:34.189Z,15.77
2018-08-22T02:52:02.418Z,16.90
2018-08-22T02:54:30.610Z,16.97
2018-08-22T02:56:58.842Z,16.13
2018-08-22T02:59:27.493Z,15.63
2018-08-22T03:01:55.874Z,16.43
2018-08-22T03:04:24.294Z,16.27
2018-08-22T03:06:52.506Z,16.53
2018-08-22T03:09:20.705Z,18.00
2018-08-22T03:11:48.903Z,16.40
2018-08-22T03:14:17.093Z,15.60
2018-08-22T03:16:45.309Z,16.53
2018-08-22T03:19:13.620Z,16.03
2018-08-22T03:21:41.794Z,17.00
2018-08-22T03:24:09.999Z,17.40
2018-08-22T03:26:38.190Z,17.20
2018-08-22T03:29:06.501Z,17.37
2018-08-22T03:31:34.665Z,17.93
2018-08-22T03:34:02.853Z,17.37
2018-08-22T03:36:31.071Z,18.47
2018-08-22T03:38:59.290Z,18.23
2018-08-22T03:41:27.776Z,18.17
2018-08-22T03:43:55.965Z,17.27
2018-08-22T03:46:24.161Z,19.00
2018-08-22T03:48:52.357Z,19.63
2018-08-22T03:51:20.557Z,17.20
2018-08-22T03:53:48.756Z,17.57
2018-08-22T03:56:16.949Z,16.13
2018-08-22T03:58:45.129Z,15.53
2018-08-22T04:01:13.335Z,17.37
2018-08-22T04:03:41.657Z,16.93
2018-08-22T04:06:09.917Z,18.47
2018-08-22T04:08:38.115Z,16.73
2018-08-22T04:11:06.312Z,16.53
2018-08-22T04:13:34.498Z,17.30
2018-08-22T04:16:02.691Z,18.43
2018-08-22T04:18:30.902Z,17.60
2018-08-22T04:20:59.101Z,16.47
2018-08-22T04:23:27.281Z,17.80
2018-08-22T04:25:55.537Z,16.50
2018-08-22T04:28:23.723Z,16.40
2018-08-22T04:30:51.948Z,16.63
2018-08-22T04:33:20.098Z,16.07
2018-08-22T04:35:48.332Z,17.50
2018-08-22T04:38:16.513Z,17.40
2018-08-22T04:40:44.730Z,18.07
2018-08-22T04:43:13.590Z,18.07
2018-08-22T04:45:41.774Z,18.97
2018-08-22T04:48:10.339Z,18.63
2018-08-22T04:50:38.497Z,18.93
2018-08-22T04:53:06.701Z,17.27
2018-08-22T04:55:34.910Z,18.57
2018-08-22T04:58:03.128Z,17.07
2018-08-22T05:00:31.323Z,17.83
2018-08-22T05:02:59.517Z,17.47
2018-08-22T05:05:27.701Z,18.23
2018-08-22T05:07:55.925Z,17.53
2018-08-22T05:10:24.213Z,18.17
2018-08-22T05:12:52.426Z,18.23
2018-08-22T05:15:20.626Z,19.67
2018-08-22T05:17:48.833Z,19.07
2018-08-22T05:20:17.044Z,18.00
2018-08-22T05:22:45.210Z,17.47
2018-08-22T05:25:13.629Z,22.20
2018-08-22T05:27:42.125Z,19.50
2018-08-22T05:30:10.348Z,17.00
2018-08-22T05:32:38.710Z,18.10
2018-08-22T05:35:06.918Z,16.60
2018-08-22T05:37:35.131Z,18.73
2018-08-22T05:40:03.355Z,16.47
2018-08-22T05:42:31.545Z,16.60
2018-08-22T05:44:59.837Z,17.07
2018-08-22T05:47:28.042Z,15.90
2018-08-22T05:49:56.334Z,24.53
2018-08-22T05:52:24.517Z,17.20
2018-08-22T05:54:54.109Z,16.63
2018-08-22T05:57:22.353Z,16.07
2018-08-22T05:59:50.747Z,54.97
2018-08-22T06:02:18.970Z,23.20
2018-08-22T06:04:47.199Z,18.47
2018-08-22T06:07:15.423Z,18.77
2018-08-22T06:09:43.634Z,16.30
2018-08-22T06:12:11.859Z,17.47
2018-08-22T06:14:40.097Z,17.77
2018-08-22T06:17:08.630Z,15.90
2018-08-22T06:19:36.845Z,19.43
2018-08-22T06:22:05.032Z,20.13
2018-08-22T06:24:33.253Z,17.10
2018-08-22T06:27:01.494Z,17.50
2018-08-22T06:29:29.718Z,16.63
2018-08-22T06:31:57.950Z,16.97
2018-08-22T06:34:26.157Z,18.03
2018-08-22T06:36:54.430Z,17.27
2018-08-22T06:39:22.777Z,16.70
2018-08-22T06:41:50.981Z,17.43
2018-08-22T06:44:19.249Z,17.57
2018-08-22T06:46:47.425Z,15.83
2018-08-22T06:49:15.682Z,16.93
2018-08-22T06:51:43.889Z,15.13
2018-08-22T06:54:12.138Z,15.90
2018-08-22T06:56:40.406Z,16.07
2018-08-22T06:59:08.642Z,16.30
2018-08-22T07:01:36.975Z,15.07
2018-08-22T07:04:05.267Z,17.13
2018-08-22T07:06:33.506Z,14.90
2018-08-22T07:09:01.771Z,15.77
2018-08-22T07:11:29.956Z,15.70
2018-08-22T07:13:58.208Z,13.87
2018-08-22T07:16:26.463Z,16.80
2018-08-22T07:18:54.698Z,15.60
2018-08-22T07:21:22.928Z,23.20
2018-08-22T07:23:51.132Z,15.07
2018-08-22T07:26:19.438Z,15.33
2018-08-22T07:28:47.721Z,16.13
2018-08-22T07:31:16.359Z,14.50
2018-08-22T07:33:45.045Z,15.90
2018-08-22T07:36:13.268Z,17.40
2018-08-22T07:38:41.599Z,15.87
2018-08-22T07:41:09.855Z,13.73
2018-08-22T07:43:38.236Z,16.60
2018-08-22T07:46:06.805Z,15.90
2018-08-22T07:48:35.095Z,15.33
2018-08-22T07:51:03.379Z,15.97
2018-08-22T07:53:31.639Z,14.47
2018-08-22T07:56:00.005Z,15.23
2018-08-22T07:58:28.320Z,14.53
2018-08-22T08:00:57.576Z,16.10
2018-08-22T08:03:25.849Z,17.90
2018-08-22T08:05:54.134Z,16.37
2018-08-22T08:08:22.522Z,14.67
2018-08-22T08:10:51.062Z,14.40
2018-08-22T08:13:24.761Z,17.17
2018-08-22T08:15:53.319Z,32.80
2018-08-22T08:18:21.608Z,23.55
2018-08-22T08:20:50.076Z,17.93
2018-08-22T08:23:21.143Z,17.30
2018-08-22T08:25:50.470Z,12.90
2018-08-22T08:28:18.810Z,12.07
2018-08-22T08:30:47.411Z,21.87
2018-08-22T08:33:15.713Z,15.23
2018-08-22T08:35:44.051Z,12.53
2018-08-22T08:38:13.588Z,21.47
2018-08-22T08:40:43.430Z,14.10
2018-08-22T08:43:11.970Z,14.87
2018-08-22T08:45:40.814Z,13.37
2018-08-22T08:48:09.685Z,12.50
2018-08-22T08:50:39.257Z,13.70
2018-08-22T08:53:07.810Z,12.57
2018-08-22T08:55:36.510Z,13.80
2018-08-22T08:58:05.177Z,11.17
2018-08-22T09:00:33.521Z,13.47
2018-08-22T09:03:01.932Z,12.00
2018-08-22T09:05:30.286Z,13.13
2018-08-22T09:07:58.614Z,12.83
2018-08-22T09:10:26.921Z,14.13
2018-08-22T09:12:55.633Z,12.53
2018-08-22T09:15:25.515Z,14.27
2018-08-22T09:17:54.129Z,11.90
2018-08-22T09:20:22.616Z,13.20
2018-08-22T09:22:51.158Z,12.20
2018-08-22T09:25:19.600Z,10.97
2018-08-22T09:27:48.161Z,15.23
2018-08-22T09:30:17.274Z,15.60
2018-08-22T09:32:46.314Z,12.27
2018-08-22T09:35:14.797Z,15.80
2018-08-22T09:37:43.353Z,12.07
2018-08-22T09:40:13.216Z,12.33
2018-08-22T09:42:41.847Z,11.53
2018-08-22T09:45:10.921Z,11.70
2018-08-22T09:47:39.915Z,11.70
2018-08-22T09:50:08.278Z,11.57
2018-08-22T09:52:36.939Z,11.87
2018-08-22T09:55:06.486Z,13.83
2018-08-22T09:57:36.476Z,11.13
2018-08-22T10:00:06.631Z,12.57
2018-08-22T10:02:35.233Z,10.30
2018-08-22T10:05:03.889Z,11.17
2018-08-22T10:07:33.248Z,11.03
2018-08-22T10:10:01.710Z,16.03
2018-08-22T10:12:30.061Z,10.27
2018-08-22T10:14:58.388Z,11.10
2018-08-22T10:17:26.738Z,10.73
2018-08-22T10:19:55.714Z,11.13
2018-08-22T10:22:24.348Z,10.60
2018-08-22T10:24:52.759Z,10.80
2018-08-22T10:27:21.511Z,10.70
2018-08-22T10:29:50.849Z,11.37
2018-08-22T10:32:19.815Z,10.70
2018-08-22T10:34:48.770Z,11.13
2018-08-22T10:37:17.068Z,11.43
2018-08-22T10:39:45.857Z,11.63
2018-08-22T10:42:16.318Z,10.63
2018-08-22T10:44:44.738Z,14.67
2018-08-22T10:47:13.085Z,10.93
2018-08-22T10:49:41.421Z,10.67
2018-08-22T10:52:10.771Z,10.43
2018-08-22T10:54:40.061Z,10.43
2018-08-22T10:57:08.337Z,9.60
2018-08-22T10:59:37.124Z,10.37
2018-08-22T11:02:05.758Z,10.60
2018-08-22T11:04:34.326Z,10.20
2018-08-22T11:07:02.650Z,12.03
2018-08-22T11:09:31.866Z,10.30
2018-08-22T11:12:00.217Z,9.60
2018-08-22T11:14:28.577Z,11.10
2018-08-22T11:16:56.899Z,9.17
2018-08-22T11:19:25.261Z,9.50
2018-08-22T11:22:05.614Z,9.00
2018-08-22T11:24:45.217Z,9.60
2018-08-22T11:27:24.875Z,9.70
2018-08-22T11:30:04.673Z,9.03
2018-08-22T11:32:44.870Z,11.27
2018-08-22T11:35:12.095Z,9.33
2018-08-22T11:37:40.462Z,8.87
2018-08-22T11:40:10.166Z,9.40
2018-08-22T11:42:38.545Z,8.83
2018-08-22T11:45:07.179Z,9.30
2018-08-22T11:47:35.712Z,8.80
2018-08-22T11:50:04.017Z,9.30
2018-08-22T11:52:32.402Z,9.43
2018-08-22T11:55:01.035Z,9.30
2018-08-22T11:57:30.381Z,8.43
2018-08-22T11:59:58.736Z,8.23
2018-08-22T12:02:28.033Z,8.43
2018-08-22T12:04:57.626Z,8.57
2018-08-22T12:07:26.886Z,8.30
2018-08-22T12:09:55.237Z,8.87
2018-08-22T12:12:24.538Z,8.30
2018-08-22T12:14:53.014Z,8.73
2018-08-22T12:17:21.681Z,9.07
2018-08-22T12:19:50.135Z,8.90
2018-08-22T12:22:18.966Z,8.20
2018-08-22T12:24:48.762Z,8.63
2018-08-22T12:27:17.959Z,8.83
2018-08-22T12:29:46.283Z,9.73
2018-08-22T12:32:14.822Z,8.03
2018-08-22T12:34:43.141Z,12.00
2018-08-22T12:37:11.475Z,8.27
2018-08-22T12:39:40.090Z,8.53
2018-08-22T12:42:08.762Z,8.57
2018-08-22T12:44:37.197Z,7.97
2018-08-22T12:47:05.825Z,9.07
2018-08-22T12:49:34.205Z,8.80
2018-08-22T12:52:02.948Z,7.37
2018-08-22T12:54:32.414Z,7.87
2018-08-22T12:57:00.788Z,8.03
2018-08-22T12:59:30.060Z,10.70
2018-08-22T13:01:58.685Z,7.80
2018-08-22T13:04:27.332Z,7.47
2018-08-22T13:06:56.083Z,7.63
2018-08-22T13:09:25.557Z,7.97
2018-08-22T13:11:55.329Z,8.00
2018-08-22T13:14:23.882Z,8.20
2018-08-22T13:16:55.856Z,7.97
2018-08-22T13:19:24.905Z,9.40
2018-08-22T13:21:54.267Z,8.10
2018-08-22T13:24:23.436Z,7.73
2018-08-22T13:26:52.033Z,7.77
2018-08-22T13:29:20.531Z,7.63
2018-08-22T13:31:48.867Z,7.97
2018-08-22T13:34:17.490Z,8.03
2018-08-22T13:36:45.795Z,8.37
2018-08-22T13:39:14.150Z,7.90
2018-08-22T13:41:42.736Z,7.57
2018-08-22T13:44:11.118Z,11.00
2018-08-22T13:46:41.045Z,8.83
2018-08-22T13:49:09.438Z,7.50
2018-08-22T13:51:37.967Z,7.37
2018-08-22T13:54:06.322Z,10.00
2018-08-22T13:56:34.708Z,8.80
2018-08-22T13:59:03.086Z,8.57
2018-08-22T14:01:31.489Z,7.03
2018-08-22T14:04:00.527Z,9.27
2018-08-22T14:06:28.989Z,7.80
2018-08-22T14:08:57.864Z,7.87
2018-08-22T14:11:26.350Z,9.20
2018-08-22T14:13:54.698Z,8.70
2018-08-22T14:16:23.093Z,9.50
2018-08-22T14:18:52.388Z,8.43
2018-08-22T14:21:20.728Z,8.53
2018-08-22T14:23:49.156Z,7.70
2018-08-22T14:26:17.479Z,8.43
2018-08-22T14:28:45.880Z,9.83
2018-08-22T14:31:14.219Z,8.10
2018-08-22T14:33:42.759Z,8.50
2018-08-22T14:36:11.194Z,7.07
2018-08-22T14:38:39.634Z,7.97
2018-08-22T14:41:09.280Z,7.67
2018-08-22T14:43:38.444Z,7.47
2018-08-22T14:46:06.790Z,8.20
2018-08-22T14:48:35.310Z,7.03
2018-08-22T14:51:03.685Z,7.17
2018-08-22T14:53:32.023Z,7.10
2018-08-22T14:56:00.462Z,7.30
2018-08-22T14:58:29.158Z,7.93
2018-08-22T15:00:57.507Z,7.60
2018-08-22T15:03:26.600Z,11.53
2018-08-22T15:05:54.870Z,7.70
2018-08-22T15:08:23.242Z,6.53
2018-08-22T15:10:51.531Z,8.27
2018-08-22T15:13:20.105Z,8.37
2018-08-22T15:15:48.482Z,7.27
2018-08-22T15:18:16.994Z,8.20
2018-08-22T15:20:45.419Z,9.80
2018-08-22T15:23:13.774Z,7.47
2018-08-22T15:25:42.153Z,7.40
2018-08-22T15:28:10.678Z,7.80
2018-08-22T15:30:38.973Z,8.47
2018-08-22T15:33:07.342Z,7.67
2018-08-22T15:35:35.679Z,7.20
2018-08-22T15:38:04.089Z,7.77
2018-08-22T15:40:32.468Z,7.70
2018-08-22T15:43:00.801Z,7.50
2018-08-22T15:45:29.175Z,7.00
2018-08-22T15:47:57.513Z,8.03
2018-08-22T15:50:25.796Z,8.10
2018-08-22T15:52:54.190Z,6.60
2018-08-22T15:55:22.539Z,6.63
2018-08-22T15:57:58.347Z,6.97
2018-08-22T16:00:34.725Z,7.63
2018-08-22T16:03:04.317Z,6.80
2018-08-22T16:05:33.317Z,7.50
2018-08-22T16:08:01.659Z,7.97
2018-08-22T16:10:30.388Z,8.53
2018-08-22T16:12:58.611Z,7.40
2018-08-22T16:15:27.544Z,6.70
2018-08-22T16:17:56.855Z,9.00
2018-08-22T16:20:26.189Z,7.90
2018-08-22T16:22:54.620Z,9.83
2018-08-22T16:26:01.296Z,9.10
2018-08-22T16:28:40.390Z,9.50
2018-08-22T16:31:08.654Z,10.67
2018-08-22T16:33:36.814Z,8.20
2018-08-22T16:36:05.039Z,9.90
2018-08-22T16:38:33.274Z,9.30
2018-08-22T16:41:01.477Z,8.70
2018-08-22T16:43:43.606Z,9.50
2018-08-22T16:46:13.646Z,8.60
2018-08-22T16:48:43.315Z,8.97
2018-08-22T16:51:11.525Z,10.07
2018-08-22T16:53:39.760Z,10.20
2018-08-22T16:56:07.996Z,12.20
2018-08-22T16:58:36.330Z,8.57
2018-08-22T17:01:04.582Z,9.37
2018-08-22T17:03:32.769Z,9.67
2018-08-22T17:06:06.470Z,8.40
2018-08-22T17:08:34.702Z,9.00
2018-08-22T17:11:04.384Z,11.40
2018-08-22T17:13:42.168Z,9.67
2018-08-22T17:16:10.390Z,10.10
2018-08-22T17:18:38.626Z,7.97
2018-08-22T17:21:07.095Z,7.60
2018-08-22T17:23:35.345Z,9.10
2018-08-22T17:26:03.617Z,9.37
2018-08-22T17:28:38.278Z,10.20
2018-08-22T17:31:06.853Z,9.10
2018-08-22T17:33:42.366Z,9.20
2018-08-22T17:36:11.731Z,8.90
2018-08-22T17:38:43.566Z,8.67
2018-08-22T17:41:11.769Z,8.77
2018-08-22T17:43:55.062Z,8.90
2018-08-22T17:46:25.062Z,9.80
2018-08-22T17:48:53.292Z,12.20
2018-08-22T17:51:21.656Z,10.23
2018-08-22T17:53:49.922Z,9.40
2018-08-22T17:56:19.997Z,9.43
2018-08-22T17:58:48.514Z,9.83
2018-08-22T18:01:16.737Z,10.47
2018-08-22T18:03:44.941Z,10.27
2018-08-22T18:06:13.173Z,10.20
2018-08-22T18:08:41.378Z,9.93
2018-08-22T18:11:09.614Z,11.80
2018-08-22T18:13:38.012Z,9.73
2018-08-22T18:16:06.242Z,26.30
2018-08-22T18:18:34.463Z,12.17
2018-08-22T18:21:02.694Z,10.67
2018-08-22T18:23:31.001Z,11.03
2018-08-22T18:26:00.489Z,11.10
2018-08-22T18:28:29.250Z,9.40
2018-08-22T18:30:57.538Z,11.10
2018-08-22T18:33:25.869Z,11.37
2018-08-22T18:35:54.082Z,12.83
2018-08-22T18:38:22.269Z,13.53
2018-08-22T18:41:01.726Z,12.87
2018-08-22T18:43:30.124Z,11.90
2018-08-22T18:46:00.510Z,11.07
2018-08-22T18:48:30.616Z,11.83
2018-08-22T18:50:58.894Z,11.43
2018-08-22T18:53:27.370Z,13.73
2018-08-22T18:56:07.258Z,15.50
2018-08-22T18:58:35.654Z,13.53
2018-08-22T19:01:04.446Z,12.43
2018-08-22T19:03:33.246Z,19.20
2018-08-22T19:06:01.689Z,14.63
2018-08-22T19:08:29.942Z,15.07
2018-08-22T19:10:58.297Z,19.00
2018-08-22T19:13:26.857Z,16.60
2018-08-22T19:16:00.701Z,17.90
2018-08-22T19:18:29.005Z,16.43
2018-08-22T19:20:59.334Z,16.27
2018-08-22T19:23:27.843Z,16.93
2018-08-22T19:25:56.686Z,18.60
2018-08-22T19:28:24.969Z,18.50
2018-08-22T19:30:53.310Z,16.20
2018-08-22T19:33:22.761Z,18.07
2018-08-22T19:35:51.207Z,18.50
2018-08-22T19:38:20.854Z,20.07
2018-08-22T19:40:49.085Z,19.03
2018-08-22T19:43:17.342Z,22.00
2018-08-22T19:45:45.614Z,22.20
2018-08-22T19:48:14.689Z,21.87
2018-08-22T19:50:42.970Z,23.90
2018-08-22T19:53:11.192Z,25.30
2018-08-22T19:55:39.554Z,22.43
2018-08-22T19:58:08.393Z,23.33
2018-08-22T20:00:36.679Z,22.97
2018-08-22T20:03:05.067Z,22.93
2018-08-22T20:05:49.738Z,20.63
2018-08-22T20:08:19.109Z,22.17
2018-08-22T20:10:47.357Z,19.03
2018-08-22T20:13:15.543Z,20.47
2018-08-22T20:15:43.793Z,18.17
2018-08-22T20:18:12.038Z,19.70
2018-08-22T20:27:25.301Z,17.50
2018-08-22T20:29:58.190Z,16.30
2018-08-22T20:32:30.149Z,19.23
2018-08-22T20:35:00.349Z,16.67
2018-08-22T20:38:58.025Z,21.23
2018-08-22T20:41:26.216Z,16.57
2018-08-22T20:43:54.430Z,19.70
2018-08-22T20:46:22.631Z,15.93
2018-08-22T20:48:51.655Z,18.10
2018-08-22T20:51:19.842Z,17.97
2018-08-22T20:53:53.195Z,16.53
2018-08-22T20:56:22.029Z,16.77
2018-08-22T20:58:50.474Z,17.43
2018-08-22T21:01:18.776Z,17.40
2018-08-22T21:03:47.673Z,16.03
2018-08-22T21:06:15.882Z,15.60
2018-08-22T21:08:44.128Z,15.23
2018-08-22T21:11:12.290Z,15.17
2018-08-22T21:13:40.515Z,15.23
2018-08-22T21:16:08.702Z,15.67
2018-08-22T21:18:37.130Z,14.77
2018-08-22T21:21:09.750Z,13.13
2018-08-22T21:23:38.403Z,14.43
2018-08-22T21:26:06.594Z,15.60
2018-08-22T21:28:39.181Z,15.27
2018-08-22T21:31:07.433Z,15.83
2018-08-22T21:33:35.625Z,14.70
2018-08-22T21:36:03.829Z,13.80
2018-08-22T21:38:32.068Z,14.13
2018-08-22T21:41:00.268Z,13.03
2018-08-22T21:43:28.466Z,14.70
2018-08-22T21:45:56.685Z,13.53
2018-08-22T21:48:26.105Z,13.80
2018-08-22T21:50:54.309Z,13.10
2018-08-22T21:53:22.715Z,13.97
2018-08-22T21:55:52.197Z,13.40
2018-08-22T21:58:20.413Z,13.17
2018-08-22T22:00:48.646Z,14.80
2018-08-22T22:03:22.231Z,14.00
2018-08-22T22:05:56.882Z,15.10
2018-08-22T22:08:25.121Z,15.53
2018-08-22T22:10:58.323Z,14.80
2018-08-22T22:13:26.563Z,15.30
2018-08-22T22:15:58.196Z,14.67
2018-08-22T22:18:26.470Z,14.47
2018-08-22T22:21:06.885Z,14.80
2018-08-22T22:23:40.893Z,13.90
2018-08-22T22:26:09.430Z,14.27
2018-08-22T22:28:37.614Z,13.17
2018-08-22T22:31:08.494Z,14.67
2018-08-22T22:33:36.769Z,14.17
2018-08-22T22:36:04.988Z,14.23
2018-08-22T22:38:33.191Z,14.30
2018-08-22T22:41:01.438Z,13.67
2018-08-22T22:43:29.663Z,12.47
2018-08-22T22:45:57.937Z,14.70
2018-08-22T22:48:36.046Z,12.93
2018-08-22T22:51:04.275Z,13.83
2018-08-22T22:53:32.526Z,13.37
2018-08-22T22:56:00.722Z,13.60
2018-08-22T22:58:28.948Z,14.80
2018-08-22T23:00:57.151Z,14.53
2018-08-22T23:03:25.358Z,12.53
2018-08-22T23:05:53.573Z,13.30
2018-08-22T23:08:21.810Z,15.80
2018-08-22T23:10:50.054Z,13.60
2018-08-22T23:13:18.312Z,13.77
2018-08-22T23:15:46.759Z,14.40
2018-08-22T23:18:15.021Z,13.93
2018-08-22T23:20:43.901Z,14.10
2018-08-22T23:23:25.524Z,12.70
2018-08-22T23:25:54.217Z,14.33
2018-08-22T23:28:22.457Z,14.20
2018-08-22T23:30:50.786Z,12.50
2018-08-22T23:33:18.995Z,19.83
2018-08-22T23:35:47.182Z,15.70
2018-08-22T23:38:20.852Z,12.97
2018-08-22T23:40:49.086Z,13.43
2018-08-22T23:43:17.303Z,14.70
2018-08-22T23:45:50.824Z,14.60
2018-08-22T23:48:24.435Z,15.27
2018-08-22T23:50:58.481Z,13.20
2018-08-22T23:53:29.647Z,12.90
2018-08-22T23:56:10.844Z,14.57
2018-08-22T23:58:39.893Z,13.40
